Time;durP1;ratioP1;P1;durP2;ratioP2;P2;SDS_P1;SDS_P2;PMS_P1;PMS_P2;Temp;Humidity;BMP_temperature;BMP_pressure;BME280_temperature;BME280_humidity;BME280_pressure;Samples;Min_cycle;Max_cycle;Signal;HPM_P1;HPM_P2
2022/12/24 00:06:07;;;;;;;12.10;6.40;;;;;;;;;;21251446;27;20104;-59
2022/12/24 00:16:09;;;;;;;10.75;6.10;;;;;;;;;;21252970;27;20051;-63
2022/12/24 00:26:13;;;;;;;10.07;6.05;;;;;;;;;;21250343;27;20051;-60
2022/12/24 00:36:15;;;;;;;12.68;7.00;;;;;;;;;;21249344;27;20051;-64
2022/12/24 00:46:18;;;;;;;13.82;7.32;;;;;;;;;;21250342;27;20047;-66
2022/12/24 00:56:20;;;;;;;13.25;7.03;;;;;;;;;;21248711;27;20522;-66
2022/12/24 01:06:22;;;;;;;13.98;8.43;;;;;;;;;;21249586;27;20147;-69
2022/12/24 01:16:24;;;;;;;15.65;8.13;;;;;;;;;;21247314;27;20058;-62
2022/12/24 01:26:27;;;;;;;16.30;9.40;;;;;;;;;;21248746;27;20054;-59
2022/12/24 01:36:30;;;;;;;16.42;9.18;;;;;;;;;;21247224;27;20152;-62
2022/12/24 01:46:33;;;;;;;18.50;9.75;;;;;;;;;;21255729;27;20414;-66
2022/12/24 01:56:36;;;;;;;19.42;10.30;;;;;;;;;;21261770;27;20055;-63
2022/12/24 02:06:38;;;;;;;18.67;10.52;;;;;;;;;;21261091;27;20068;-61
2022/12/24 02:17:00;;;;;;;17.42;10.27;;;;;;;;;;21259972;27;20483;-61
2022/12/24 02:27:16;;;;;;;21.48;11.02;;;;;;;;;;21258915;27;20051;-61
2022/12/24 02:37:31;;;;;;;20.23;10.63;;;;;;;;;;21258169;27;20083;-64
2022/12/24 02:47:33;;;;;;;20.85;11.57;;;;;;;;;;21255780;27;20359;-69
2022/12/24 02:57:50;;;;;;;23.35;11.77;;;;;;;;;;21254756;27;20090;-61
2022/12/24 03:07:52;;;;;;;24.42;11.38;;;;;;;;;;21255835;27;20057;-70
2022/12/24 03:17:57;;;;;;;26.83;12.73;;;;;;;;;;21257204;27;20051;-65
2022/12/24 03:28:04;;;;;;;21.65;11.98;;;;;;;;;;21254816;27;20471;-63
2022/12/24 03:38:07;;;;;;;19.42;10.48;;;;;;;;;;21253900;27;20403;-60
2022/12/24 03:48:11;;;;;;;20.90;10.32;;;;;;;;;;21254046;27;20043;-60
2022/12/24 03:58:14;;;;;;;16.92;8.50;;;;;;;;;;21250890;27;20047;-59
2022/12/24 04:08:36;;;;;;;13.43;7.43;;;;;;;;;;21249938;27;20051;-59
2022/12/24 04:18:57;;;;;;;17.48;7.80;;;;;;;;;;21249853;27;20047;-58
2022/12/24 04:29:08;;;;;;;12.95;7.38;;;;;;;;;;21249569;27;20088;-64
2022/12/24 04:39:15;;;;;;;12.98;6.93;;;;;;;;;;21249981;27;20114;-66
2022/12/24 04:49:37;;;;;;;12.32;6.55;;;;;;;;;;21249393;27;20089;-62
2022/12/24 04:59:40;;;;;;;11.75;6.35;;;;;;;;;;21248203;27;20059;-59
2022/12/24 05:09:43;;;;;;;13.68;7.38;;;;;;;;;;21248147;27;20047;-64
2022/12/24 05:19:46;;;;;;;12.57;6.45;;;;;;;;;;21253117;27;20043;-62
2022/12/24 05:29:49;;;;;;;11.95;5.85;;;;;;;;;;21262949;27;20043;-62
2022/12/24 05:39:52;;;;;;;12.85;6.30;;;;;;;;;;21262100;27;20047;-60
2022/12/24 05:49:53;;;;;;;11.10;6.35;;;;;;;;;;21262292;27;20411;-61
2022/12/24 05:59:55;;;;;;;11.70;6.55;;;;;;;;;;21261310;27;20066;-60
2022/12/24 06:09:57;;;;;;;29.75;17.55;;;;;;;;;;21260278;27;20112;-63
2022/12/24 06:19:59;;;;;;;15.88;9.70;;;;;;;;;;21259933;27;20053;-59
2022/12/24 06:30:01;;;;;;;18.45;9.38;;;;;;;;;;21240369;27;20130;-66
2022/12/24 06:40:03;;;;;;;17.52;9.95;;;;;;;;;;21257187;27;20126;-68
2022/12/24 06:50:05;;;;;;;17.20;9.90;;;;;;;;;;21258285;27;20054;-60
2022/12/24 07:00:08;;;;;;;18.95;11.05;;;;;;;;;;21256010;27;20046;-68
2022/12/24 07:10:11;;;;;;;23.35;11.90;;;;;;;;;;21255357;27;20384;-66
2022/12/24 07:20:13;;;;;;;19.73;11.02;;;;;;;;;;21255241;27;20129;-63
2022/12/24 07:30:15;;;;;;;24.65;14.35;;;;;;;;;;21254509;27;20461;-59
2022/12/24 07:40:17;;;;;;;26.13;14.40;;;;;;;;;;21252196;27;20461;-59
2022/12/24 07:50:18;;;;;;;26.63;13.27;;;;;;;;;;21251625;27;20043;-63
2022/12/24 08:00:19;;;;;;;24.20;12.35;;;;;;;;;;21250942;27;20055;-61
2022/12/24 08:10:21;;;;;;;28.73;13.73;;;;;;;;;;21250472;27;20051;-62
2022/12/24 08:20:23;;;;;;;29.77;13.63;;;;;;;;;;21249581;27;20084;-59
2022/12/24 08:30:24;;;;;;;30.52;14.32;;;;;;;;;;21249353;27;20054;-66
2022/12/24 08:40:26;;;;;;;20.70;11.82;;;;;;;;;;21247761;27;20051;-66
2022/12/24 08:50:28;;;;;;;17.48;9.60;;;;;;;;;;21248869;27;20483;-70
2022/12/24 09:00:30;;;;;;;14.48;7.90;;;;;;;;;;21265391;27;20043;-61
2022/12/24 09:10:31;;;;;;;13.57;8.25;;;;;;;;;;21264604;27;20054;-65
2022/12/24 09:20:33;;;;;;;10.95;6.82;;;;;;;;;;21244889;27;20126;-61
2022/12/24 09:30:35;;;;;;;11.07;6.43;;;;;;;;;;21262247;27;20093;-62
2022/12/24 09:40:40;;;;;;;11.95;6.13;;;;;;;;;;21262761;27;20437;-60
2022/12/24 09:50:45;;;;;;;9.93;5.78;;;;;;;;;;21262004;27;20047;-64
2022/12/24 10:00:47;;;;;;;12.13;6.93;;;;;;;;;;21260792;27;20058;-60
2022/12/24 10:10:52;;;;;;;10.63;6.63;;;;;;;;;;21258972;27;20055;-60
2022/12/24 10:21:07;;;;;;;10.35;5.68;;;;;;;;;;21258900;27;20051;-65
2022/12/24 10:31:09;;;;;;;8.60;5.53;;;;;;;;;;21259084;27;20105;-62
2022/12/24 10:41:12;;;;;;;9.25;5.25;;;;;;;;;;21257034;27;20092;-60
2022/12/24 10:51:23;;;;;;;11.73;7.65;;;;;;;;;;21255291;27;20142;-59
2022/12/24 11:01:45;;;;;;;7.32;5.18;;;;;;;;;;21254635;27;20130;-58
2022/12/24 11:11:47;;;;;;;12.02;7.60;;;;;;;;;;21254815;27;20379;-64
2022/12/24 11:21:57;;;;;;;10.98;5.82;;;;;;;;;;21234259;27;20129;-62
2022/12/24 11:32:19;;;;;;;16.10;8.23;;;;;;;;;;21253457;27;20043;-59
2022/12/24 11:42:27;;;;;;;9.52;6.45;;;;;;;;;;21252907;27;20058;-62
2022/12/24 11:52:29;;;;;;;10.80;6.55;;;;;;;;;;21252607;27;20138;-64
2022/12/24 12:02:39;;;;;;;11.23;7.70;;;;;;;;;;21250480;27;20519;-60
2022/12/24 12:12:42;;;;;;;11.65;7.38;;;;;;;;;;21250524;27;20479;-61
2022/12/24 12:22:45;;;;;;;11.13;7.22;;;;;;;;;;21249286;27;20075;-60
2022/12/24 12:33:03;;;;;;;13.07;7.70;;;;;;;;;;21248294;27;20047;-60
2022/12/24 12:43:15;;;;;;;10.27;5.97;;;;;;;;;;21248082;27;20278;-59
2022/12/24 12:53:23;;;;;;;11.60;6.82;;;;;;;;;;21247256;27;20044;-64
2022/12/24 13:03:38;;;;;;;11.48;6.50;;;;;;;;;;21228769;28;20411;-59
2022/12/24 13:14:03;;;;;;;10.90;6.85;;;;;;;;;;21249249;28;20137;-62
2022/12/24 13:24:06;;;;;;;11.30;7.00;;;;;;;;;;21230274;28;20510;-59
2022/12/24 13:34:28;;;;;;;12.07;7.22;;;;;;;;;;21229758;28;20134;-66
2022/12/24 13:44:32;;;;;;;11.50;7.70;;;;;;;;;;21240075;27;20043;-59
2022/12/24 13:54:35;;;;;;;13.10;8.40;;;;;;;;;;21261893;27;20205;-60
2022/12/24 14:04:41;;;;;;;14.60;8.52;;;;;;;;;;21260738;27;20092;-61
2022/12/24 14:14:43;;;;;;;17.35;8.55;;;;;;;;;;21262114;27;20549;-59
2022/12/24 14:24:54;;;;;;;12.95;8.32;;;;;;;;;;21259181;27;20054;-61
2022/12/24 14:35:15;;;;;;;13.73;8.80;;;;;;;;;;21259039;27;20134;-61
2022/12/24 14:45:17;;;;;;;13.82;8.68;;;;;;;;;;21257310;27;20133;-61
2022/12/24 14:55:36;;;;;;;15.45;9.27;;;;;;;;;;21257198;27;20372;-60
2022/12/24 15:05:38;;;;;;;16.85;9.18;;;;;;;;;;21256177;27;20051;-68
2022/12/24 15:15:42;;;;;;;15.10;9.25;;;;;;;;;;21258339;27;20043;-64
2022/12/24 15:25:44;;;;;;;14.90;8.48;;;;;;;;;;21256344;27;20035;-59
2022/12/24 15:35:49;;;;;;;14.80;8.00;;;;;;;;;;21234599;27;20138;-62
2022/12/24 15:45:51;;;;;;;13.27;8.70;;;;;;;;;;21252217;27;20172;-60
2022/12/24 15:56:02;;;;;;;10.90;7.82;;;;;;;;;;21250609;27;20047;-62
2022/12/24 16:06:06;;;;;;;16.95;8.13;;;;;;;;;;21250348;27;20054;-60
2022/12/24 16:16:10;;;;;;;15.80;8.32;;;;;;;;;;21249657;27;20058;-58
2022/12/24 16:26:12;;;;;;;11.60;7.40;;;;;;;;;;21249909;27;20491;-60
2022/12/24 16:36:14;;;;;;;12.52;7.60;;;;;;;;;;21249747;27;20051;-63
2022/12/24 16:46:15;;;;;;;13.45;7.40;;;;;;;;;;21248920;27;20052;-64
2022/12/24 16:56:17;;;;;;;12.70;7.13;;;;;;;;;;21249213;28;20043;-59
2022/12/24 17:06:18;;;;;;;15.60;9.00;;;;;;;;;;21248069;28;20134;-61
2022/12/24 17:16:20;;;;;;;16.13;8.40;;;;;;;;;;21236119;27;20076;-65
2022/12/24 17:26:22;;;;;;;14.73;8.60;;;;;;;;;;21263471;27;20047;-61
2022/12/24 17:36:24;;;;;;;15.68;9.00;;;;;;;;;;21262994;27;20050;-60
2022/12/24 17:46:26;;;;;;;15.50;9.63;;;;;;;;;;21244431;27;20414;-59
2022/12/24 17:56:28;;;;;;;15.50;10.32;;;;;;;;;;21262377;27;20043;-61
2022/12/24 18:06:30;;;;;;;19.20;10.77;;;;;;;;;;21261428;27;20396;-60
2022/12/24 18:16:36;;;;;;;21.38;10.52;;;;;;;;;;21260185;27;20491;-59
2022/12/24 18:26:38;;;;;;;16.98;10.13;;;;;;;;;;21258883;27;20047;-58
2022/12/24 18:36:40;;;;;;;17.48;10.45;;;;;;;;;;21257439;27;20043;-58
2022/12/24 18:46:41;;;;;;;18.33;11.98;;;;;;;;;;21256209;27;20126;-63
2022/12/24 18:56:43;;;;;;;22.15;12.25;;;;;;;;;;21256974;27;20112;-66
2022/12/24 19:06:45;;;;;;;19.42;11.88;;;;;;;;;;21256637;27;20043;-58
2022/12/24 19:16:46;;;;;;;23.02;12.98;;;;;;;;;;21256872;27;20059;-58
2022/12/24 19:26:48;;;;;;;26.08;13.70;;;;;;;;;;21257100;27;20472;-61
2022/12/24 19:36:50;;;;;;;22.17;12.00;;;;;;;;;;21253028;27;20373;-60
2022/12/24 19:46:52;;;;;;;18.77;11.30;;;;;;;;;;21253269;27;20043;-61
2022/12/24 19:56:53;;;;;;;16.60;10.02;;;;;;;;;;21250955;27;20499;-60
2022/12/24 20:06:55;;;;;;;19.65;10.07;;;;;;;;;;21251819;27;20067;-59
2022/12/24 20:16:57;;;;;;;16.63;9.63;;;;;;;;;;21250386;27;20078;-59
2022/12/24 20:26:58;;;;;;;18.08;11.05;;;;;;;;;;21250031;27;20043;-59
2022/12/24 20:37:00;;;;;;;26.48;15.40;;;;;;;;;;21249524;27;20082;-60
2022/12/24 20:47:02;;;;;;;26.10;14.65;;;;;;;;;;21248082;27;20039;-59
2022/12/24 20:57:04;;;;;;;31.73;18.05;;;;;;;;;;21247472;27;20058;-61
2022/12/24 21:07:05;;;;;;;29.42;17.52;;;;;;;;;;21248440;27;20047;-61
2022/12/24 21:17:07;;;;;;;18.42;10.73;;;;;;;;;;21247445;28;20096;-59
2022/12/24 21:27:09;;;;;;;16.80;9.88;;;;;;;;;;21248149;27;20047;-60
2022/12/24 21:37:11;;;;;;;19.40;11.38;;;;;;;;;;21246670;27;20043;-61
2022/12/24 21:47:13;;;;;;;13.52;7.55;;;;;;;;;;21246688;28;20444;-61
2022/12/24 22:17:58;;;;;;;15.48;7.75;;;;;;;;;;21261049;27;20566;-61
2022/12/24 22:28:00;;;;;;;14.75;8.18;;;;;;;;;;21259658;27;20510;-59
2022/12/24 22:38:03;;;;;;;11.07;7.07;;;;;;;;;;21258534;27;20047;-67
2022/12/24 22:48:06;;;;;;;14.75;8.18;;;;;;;;;;21257697;27;20138;-62
2022/12/24 22:58:08;;;;;;;18.02;10.13;;;;;;;;;;21256049;27;20047;-60
2022/12/24 23:08:09;;;;;;;17.17;9.52;;;;;;;;;;21255959;27;20051;-61
2022/12/24 23:18:12;;;;;;;18.73;10.70;;;;;;;;;;21251991;27;20183;-63
2022/12/24 23:28:14;;;;;;;28.23;16.48;;;;;;;;;;21254762;27;20460;-65
2022/12/24 23:38:16;;;;;;;28.17;16.63;;;;;;;;;;21254025;27;20431;-64
2022/12/24 23:48:19;;;;;;;31.38;16.33;;;;;;;;;;21252380;27;20122;-60
2022/12/24 23:58:21;;;;;;;28.10;15.30;;;;;;;;;;21250916;27;20059;-67
